GW2812 Weather Reports


Display with metric or nautical units.
time (UTC)temp
F
wind
direction
speed
MPH
gust
MPH
rain 1hr
in
rain 24hr
in
rain mn
in
humidity
%
barometer
mb
20260506131736 57 187 14.0 18.0 0.00 0.00 0.00 86 1010.5
20260506131232 57 187 21.0 24.0 0.00 0.00 0.00 86 1010.8
20260506130729 57 209 9.0 20.0 0.00 0.00 0.00 87 1010.6
20260506130225 57 206 9.0 20.0 0.00 0.00 0.00 88 1010.5
20260506125724 57 181 17.0 24.0 0.00 0.00 0.00 88 1010.5
20260506125221 56 208 8.0 19.0 0.00 0.00 0.00 88 1010.7
20260506124719 56 198 12.0 20.0 0.00 0.00 0.00 88 1010.5
20260506124217 57 195 8.0 21.0 0.00 0.00 0.00 87 1010.3
20260506123714 57 202 15.0 18.0 0.00 0.00 0.00 87 1010.6
20260506123213 57 205 7.0 16.0 0.00 0.00 0.00 87 1010.7
20260506122709 57 208 14.0 22.0 0.00 0.00 0.00 86 1010.8
20260506122207 57 199 9.0 24.0 0.00 0.00 0.00 86 1010.8
20260506121704 57 183 11.0 20.0 0.00 0.00 0.00 86 1010.9
20260506121200 57 179 9.0 21.0 0.00 0.00 0.00 86 1011.0
20260506120658 57 208 12.0 24.0 0.00 0.00 0.00 87 1011.0
20260506120156 57 190 11.0 26.0 0.00 0.00 0.00 87 1011.1
20260506115654 57 202 10.0 22.0 0.00 0.00 0.00 88 1011.0
20260506115152 57 186 10.0 20.0 0.00 0.00 0.00 88 1011.2
20260506114649 57 201 12.0 23.0 0.00 0.00 0.00 88 1011.2
20260506114146 57 201 12.0 19.0 0.00 0.00 0.00 88 1011.0
20260506113645 57 196 9.0 20.0 0.00 0.00 0.00 88 1010.7
20260506113142 57 192 13.0 20.0 0.00 0.00 0.00 88 1010.7
20260506112637 57 202 10.0 22.0 0.00 0.00 0.00 88 1010.6
20260506112136 57 197 9.0 20.0 0.00 0.00 0.00 88 1010.6
20260506111633 56 203 12.0 16.0 0.00 0.00 0.00 89 1010.5
20260506111131 56 218 13.0 23.0 0.00 0.00 0.00 89 1010.9
20260506110628 56 200 15.0 24.0 0.00 0.00 0.00 89 1010.9
20260506110125 56 187 8.0 20.0 0.00 0.00 0.00 89 1011.1
20260506105622 55 193 7.0 19.0 0.00 0.00 0.00 90 1010.9
20260506105119 55 207 10.0 18.0 0.00 0.00 0.00 90 1011.1
20260506104617 55 208 17.0 24.0 0.00 0.00 0.00 90 1010.8
20260506104114 55 200 5.0 21.0 0.00 0.00 0.00 90 1010.9
20260506103611 55 196 16.0 25.0 0.00 0.00 0.00 90 1010.6
20260506103108 55 205 13.0 19.0 0.00 0.00 0.00 90 1010.7
20260506102606 55 201 8.0 19.0 0.00 0.00 0.00 90 1010.5
20260506102103 55 177 13.0 20.0 0.00 0.00 0.00 90 1010.6
20260506101600 55 190 14.0 21.0 0.00 0.00 0.00 91 1010.8
20260506101057 55 224 14.0 18.0 0.00 0.00 0.00 91 1010.5
20260506100555 55 191 14.0 19.0 0.00 0.00 0.00 91 1010.5
20260506100053 55 202 9.0 22.0 0.00 0.00 0.00 91 1010.5
20260506095551 55 191 15.0 21.0 0.00 0.00 0.00 91 1010.6
20260506095048 55 197 13.0 22.0 0.00 0.00 0.00 91 1010.4
20260506094545 55 188 14.0 24.0 0.00 0.00 0.00 91 1010.3
20260506094043 55 194 16.0 20.0 0.00 0.00 0.00 91 1010.6
20260506093541 55 193 16.0 27.0 0.00 0.00 0.00 91 1010.6
20260506093038 55 190 9.0 20.0 0.00 0.00 0.00 91 1010.4
20260506092536 55 201 18.0 20.0 0.00 0.00 0.00 91 1010.8
20260506092033 55 184 12.0 22.0 0.00 0.00 0.00 90 1010.5
20260506091531 55 192 13.0 18.0 0.00 0.00 0.00 90 1010.7
20260506091028 55 176 13.0 17.0 0.00 0.00 0.00 90 1010.6
20260506090526 55 183 12.0 20.0 0.00 0.00 0.00 90 1010.8
20260506090022 55 207 11.0 22.0 0.00 0.00 0.00 90 1010.7
20260506085519 55 174 12.0 17.0 0.00 0.00 0.00 90 1010.8
20260506085015 55 195 12.0 21.0 0.00 0.00 0.00 90 1010.8
20260506084512 55 198 13.0 17.0 0.00 0.00 0.00 90 1010.8
20260506084008 55 202 9.0 17.0 0.00 0.00 0.00 90 1011.0
20260506083506 55 200 7.0 17.0 0.00 0.00 0.00 89 1010.9
20260506083003 55 189 12.0 20.0 0.00 0.00 0.00 89 1010.8
20260506082500 55 198 11.0 19.0 0.00 0.00 0.00 89 1010.8
20260506081955 55 202 14.0 20.0 0.00 0.00 0.00 89 1011.0
20260506081454 55 207 10.0 22.0 0.00 0.00 0.00 89 1011.0
20260506080951 55 185 17.0 24.0 0.00 0.00 0.00 89 1010.9
20260506080448 55 187 13.0 18.0 0.00 0.00 0.00 89 1010.8
20260506073431 55 210 11.0 19.0 0.00 0.00 0.00 88 1011.2
20260506072929 55 198 8.0 16.0 0.00 0.00 0.00 88 1011.1
20260506072426 55 202 16.0 21.0 0.00 0.00 0.00 88 1011.2
20260506071924 55 192 8.0 16.0 0.00 0.00 0.00 88 1011.3
20260506071422 55 207 14.0 22.0 0.00 0.00 0.00 88 1011.3
20260506070918 55 208 8.0 17.0 0.00 0.00 0.00 88 1011.0
20260506070415 56 215 14.0 24.0 0.00 0.00 0.00 88 1011.3
20260506062352 56 210 11.0 22.0 0.00 0.00 0.00 87 1011.1
20260506061848 56 210 18.0 31.0 0.00 0.00 0.00 87 1011.0
20260506061345 56 193 12.0 24.0 0.00 0.00 0.00 87 1011.1
20260506060843 56 209 12.0 20.0 0.00 0.00 0.00 87 1011.2
20260506060341 56 197 12.0 24.0 0.00 0.00 0.00 87 1011.2
20260506051313 57 202 10.0 22.0 0.00 0.00 0.00 85 1011.2
20260506050810 57 190 15.0 29.0 0.00 0.00 0.00 85 1011.1
20260506050308 57 203 13.0 24.0 0.00 0.00 0.00 85 1011.3
20260506044758 57 186 14.0 24.0 0.00 0.00 0.00 84 1011.3
20260506044256 57 200 15.0 22.0 0.00 0.00 0.00 84 1011.6
20260506043753 57 215 17.0 24.0 0.00 0.00 0.00 84 1011.5
20260506043250 57 192 15.0 26.0 0.00 0.00 0.00 84 1011.5
20260506042749 57 202 12.0 27.0 0.00 0.00 0.00 84 1011.5
20260506042247 57 187 12.0 26.0 0.00 0.00 0.00 84 1011.3
20260506041745 57 200 9.0 20.0 0.00 0.00 0.00 84 1011.3
20260506041242 57 195 12.0 24.0 0.00 0.00 0.00 84 1011.3
20260506040739 57 208 16.0 28.0 0.00 0.00 0.00 83 1011.2
20260506040236 57 188 13.0 27.0 0.00 0.00 0.00 83 1011.6
20260506035733 57 192 11.0 33.0 0.00 0.00 0.00 83 1011.7
20260506035230 57 200 9.0 26.0 0.00 0.00 0.00 83 1011.4
20260506034727 57 204 17.0 23.0 0.00 0.00 0.00 83 1011.4
20260506034224 57 195 17.0 20.0 0.00 0.00 0.00 82 1011.4
20260506033721 57 193 17.0 23.0 0.00 0.00 0.00 82 1011.2
20260506033218 57 210 14.0 20.0 0.00 0.00 0.00 82 1011.2
20260506032715 58 209 23.0 26.0 0.00 0.00 0.00 82 1011.4
20260506032212 58 238 13.0 20.0 0.00 0.00 0.00 82 1011.4
20260506031708 58 180 8.0 23.0 0.00 0.00 0.00 82 1011.1
20260506031206 58 203 15.0 29.0 0.00 0.00 0.00 81 1011.3
20260506030704 58 209 13.0 27.0 0.00 0.00 0.00 81 1011.3
20260506030201 58 205 10.0 23.0 0.00 0.00 0.00 81 1011.4
20260506025657 58 195 11.0 28.0 0.00 0.00 0.00 82 1011.4
20260506025154 58 192 22.0 34.0 0.00 0.00 0.00 82 1011.0
20260506024646 58 200 16.0 24.0 0.00 0.00 0.00 81 1011.4
20260506024142 59 207 10.0 23.0 0.00 0.00 0.00 81 1011.3
20260506023638 59 206 15.0 24.0 0.00 0.00 0.00 81 1011.2
20260506023136 58 205 9.0 26.0 0.00 0.00 0.00 82 1011.3
20260506022633 58 205 14.0 29.0 0.00 0.00 0.00 82 1011.4
20260506022130 58 211 18.0 22.0 0.00 0.00 0.00 82 1011.3
20260506021628 58 213 13.0 26.0 0.00 0.00 0.00 82 1011.2
20260506021125 58 208 15.0 27.0 0.00 0.00 0.00 82 1011.5
20260506020622 58 193 17.0 23.0 0.00 0.00 0.00 82 1011.5
20260506020119 58 215 12.0 24.0 0.00 0.00 0.00 81 1011.4
20260506015617 58 210 10.0 24.0 0.00 0.00 0.00 81 1011.3
20260506015114 58 215 18.0 23.0 0.00 0.00 0.00 81 1011.3
20260506014612 58 199 8.0 29.0 0.00 0.00 0.00 80 1011.2
20260506014107 58 203 15.0 18.0 0.00 0.00 0.00 80 1011.2
20260506013605 59 208 10.0 21.0 0.00 0.00 0.00 80 1010.9
20260506013102 59 194 11.0 29.0 0.00 0.00 0.00 79 1011.0
20260506012558 59 193 10.0 25.0 0.00 0.00 0.00 79 1011.1
20260506012054 59 194 12.0 23.0 0.00 0.00 0.00 79 1011.1
20260506011553 59 209 15.0 21.0 0.00 0.00 0.00 79 1011.2
20260506011048 59 213 10.0 22.0 0.00 0.00 0.00 79 1011.1
20260506010548 59 210 13.0 23.0 0.00 0.00 0.00 78 1011.1
20260506010044 59 199 16.0 25.0 0.00 0.00 0.00 78 1011.0
20260506005541 59 191 10.0 24.0 0.00 0.00 0.00 78 1011.0
20260506005037 59 209 17.0 22.0 0.00 0.00 0.00 78 1011.0
20260506004535 59 211 17.0 25.0 0.00 0.00 0.00 78 1010.9
20260506004031 59 205 22.0 30.0 0.00 0.00 0.00 77 1010.8
20260506003528 60 201 19.0 23.0 0.00 0.00 0.00 77 1010.8
20260506003024 60 200 17.0 28.0 0.00 0.00 0.00 76 1010.7
20260506002520 60 198 18.0 30.0 0.00 0.00 0.00 76 1010.6
20260506002016 60 208 19.0 24.0 0.00 0.00 0.00 77 1010.3
20260506001512 60 201 20.0 27.0 0.00 0.00 0.00 77 1010.5
20260506001010 60 202 14.0 28.0 0.00 0.00 0.00 77 1010.3
20260506000507 60 197 14.0 30.0 0.00 0.00 0.00 76 1010.3
20260506000004 60 200 12.0 28.0 0.00 0.00 0.00 76 1010.1
20260505235502 61 203 15.0 31.0 0.00 0.00 0.00 75 1010.0
20260505234958 60 201 16.0 22.0 0.00 0.00 0.00 76 1010.2
20260505234456 60 183 18.0 24.0 0.00 0.00 0.00 76 1010.0
20260505233952 60 199 18.0 25.0 0.00 0.00 0.00 76 1009.7
20260505233450 60 220 9.0 30.0 0.00 0.00 0.00 76 1009.7
20260505232947 60 201 10.0 23.0 0.00 0.00 0.00 77 1009.6
20260505232445 60 190 12.0 21.0 0.00 0.00 0.00 77 1009.5
20260505231942 60 203 11.0 19.0 0.00 0.00 0.00 77 1009.5
20260505231439 60 204 12.0 24.0 0.00 0.00 0.00 77 1009.4
20260505230938 60 204 14.0 28.0 0.00 0.00 0.00 77 1009.2
20260505230435 60 185 13.0 29.0 0.00 0.00 0.00 77 1009.4
20260505225931 60 186 7.0 23.0 0.00 0.00 0.00 77 1009.4
20260505225428 60 207 10.0 22.0 0.00 0.00 0.00 77 1009.3
20260505224924 60 196 9.0 19.0 0.00 0.00 0.00 76 1009.4
20260505224421 60 206 17.0 26.0 0.00 0.00 0.00 77 1009.2
20260505223918 60 211 17.0 22.0 0.00 0.00 0.00 77 1009.1
20260505223415 60 189 19.0 25.0 0.00 0.00 0.00 77 1009.3
20260505222912 60 199 16.0 34.0 0.00 0.00 0.00 77 1008.8
20260505222408 60 193 10.0 31.0 0.00 0.00 0.00 77 1009.1
20260505221904 60 198 9.0 22.0 0.00 0.00 0.00 76 1009.5
20260505221402 60 194 13.0 28.0 0.00 0.00 0.00 76 1009.3
20260505220858 61 189 14.0 25.0 0.00 0.00 0.00 75 1009.2
20260505220355 61 207 20.0 25.0 0.00 0.00 0.00 75 1009.0
20260505215853 60 197 11.0 23.0 0.00 0.00 0.00 75 1008.9
20260505215351 61 204 22.0 27.0 0.00 0.00 0.00 75 1009.2
20260505214849 61 200 9.0 26.0 0.00 0.00 0.00 75 1009.1
20260505214346 61 196 17.0 23.0 0.00 0.00 0.00 75 1009.2
20260505213843 61 188 10.0 26.0 0.00 0.00 0.00 76 1008.8
20260505213341 60 183 20.0 28.0 0.00 0.00 0.00 76 1008.9
20260505212837 61 204 15.0 24.0 0.00 0.00 0.00 75 1008.9
20260505212334 61 186 14.0 34.0 0.00 0.00 0.00 74 1008.6
20260505211830 62 182 16.0 24.0 0.00 0.00 0.00 74 1008.6
20260505211328 61 192 10.0 27.0 0.00 0.00 0.00 74 1008.7
20260505210824 62 194 15.0 26.0 0.00 0.00 0.00 74 1008.6
20260505210321 61 199 7.0 21.0 0.00 0.00 0.00 75 1008.7
20260505205818 61 218 16.0 24.0 0.00 0.00 0.00 75 1008.7
20260505205316 60 198 16.0 24.0 0.00 0.00 0.00 76 1008.8
20260505204812 61 177 15.0 28.0 0.00 0.00 0.00 75 1008.6
20260505204311 61 172 9.0 22.0 0.00 0.00 0.00 76 1008.8
20260505203808 60 201 22.0 26.0 0.00 0.00 0.00 76 1008.6
20260505203304 60 180 13.0 26.0 0.00 0.00 0.00 76 1008.6
20260505202800 61 190 13.0 20.0 0.00 0.00 0.00 76 1008.6
20260505202257 61 189 12.0 31.0 0.00 0.00 0.00 76 1008.8
20260505201753 61 188 13.0 27.0 0.00 0.00 0.00 76 1008.7
20260505201251 61 184 13.0 24.0 0.00 0.00 0.00 76 1008.7
20260505200749 61 192 16.0 23.0 0.00 0.00 0.00 76 1008.7
20260505200246 61 187 15.0 26.0 0.00 0.00 0.00 75 1008.9
20260505195741 61 195 19.0 28.0 0.00 0.00 0.00 76 1008.8
20260505195239 61 179 17.0 23.0 0.00 0.00 0.00 76 1008.9
20260505194736 61 181 10.0 24.0 0.00 0.00 0.00 76 1008.9
20260505194232 61 199 15.0 26.0 0.00 0.00 0.00 76 1009.2
20260505193728 61 192 13.0 22.0 0.00 0.00 0.00 75 1009.1
20260505193226 62 191 13.0 23.0 0.00 0.00 0.00 75 1009.1
20260505192724 62 207 15.0 28.0 0.00 0.00 0.00 74 1009.5
20260505192221 62 212 15.0 21.0 0.00 0.00 0.00 75 1009.8
20260505191720 62 181 18.0 21.0 0.00 0.00 0.00 75 1009.7
20260505191218 61 184 9.0 23.0 0.00 0.00 0.00 75 1009.6
20260505190714 61 193 11.0 24.0 0.00 0.00 0.00 76 1009.8
20260505190213 61 188 13.0 22.0 0.00 0.00 0.00 76 1009.9
20260505185710 61 181 8.0 25.0 0.00 0.00 0.00 77 1010.0
20260505185207 61 194 14.0 19.0 0.00 0.00 0.00 76 1010.2
20260505184703 61 208 7.0 19.0 0.00 0.00 0.00 76 1010.2
20260505184201 61 198 11.0 23.0 0.00 0.00 0.00 76 1010.2
20260505183657 61 185 14.0 20.0 0.00 0.00 0.00 76 1010.2
20260505183155 61 184 16.0 21.0 0.00 0.00 0.00 75 1010.3
20260505182650 61 187 13.0 20.0 0.00 0.00 0.00 76 1010.3
20260505182148 61 186 13.0 22.0 0.00 0.00 0.00 76 1010.5
20260505181644 61 191 7.0 19.0 0.00 0.00 0.00 77 1010.5
20260505181142 61 202 11.0 16.0 0.00 0.00 0.00 76 1010.7
20260505180638 61 196 10.0 18.0 0.00 0.00 0.00 76 1010.6
20260505180135 61 196 8.0 21.0 0.00 0.00 0.00 76 1010.9
20260505175631 61 185 7.0 17.0 0.00 0.00 0.00 76 1010.7
20260505175128 61 210 11.0 16.0 0.00 0.00 0.00 76 1010.8
20260505174624 61 183 9.0 17.0 0.00 0.00 0.00 75 1010.9
20260505174120 62 212 14.0 15.0 0.00 0.00 0.00 74 1011.2
20260505173617 62 230 4.0 13.0 0.00 0.00 0.00 75 1011.0
20260505173114 62 210 7.0 10.0 0.00 0.00 0.00 75 1011.0
20260505172612 62 172 3.0 12.0 0.00 0.00 0.00 75 1011.3
20260505172108 62 252 6.0 14.0 0.00 0.00 0.00 76 1011.3
20260505171603 61 204 5.0 13.0 0.00 0.00 0.00 77 1011.4
20260505171100 62 222 5.0 11.0 0.00 0.00 0.00 75 1011.4
20260505170557 62 216 6.0 9.0 0.00 0.00 0.00 75 1011.4
20260505170053 62 211 7.0 11.0 0.00 0.00 0.00 74 1011.7
20260505165548 62 194 5.0 12.0 0.00 0.00 0.00 75 1011.3
20260505165045 61 200 3.0 12.0 0.00 0.00 0.00 77 1011.3
20260505164540 61 219 7.0 13.0 0.00 0.00 0.00 76 1011.5
20260505164038 61 177 7.0 18.0 0.00 0.00 0.00 76 1011.5
20260505163537 62 187 5.0 14.0 0.00 0.00 0.00 75 1011.6
20260505163033 61 201 9.0 16.0 0.00 0.00 0.00 76 1011.5
20260505162527 62 171 9.0 12.0 0.00 0.00 0.00 75 1011.6
20260505162024 62 187 11.0 13.0 0.00 0.00 0.00 74 1011.5
20260505161520 62 183 7.0 13.0 0.00 0.00 0.00 75 1011.7
20260505161017 64 194 4.0 8.0 0.00 0.00 0.00 73 1012.0
20260505160516 62 208 4.0 10.0 0.00 0.00 0.00 75 1011.8
20260505152951 63 200 5.0 11.0 0.00 0.00 0.00 75 1011.9
20260505152448 62 194 4.0 6.0 0.00 0.00 0.00 76 1012.1
20260505151944 62 195 3.0 9.0 0.00 0.00 0.00 75 1012.0
20260505151439 62 189 5.0 8.0 0.00 0.00 0.00 75 1012.2
20260505150937 62 206 3.0 11.0 0.00 0.00 0.00 76 1012.3
20260505150434 62 176 4.0 8.0 0.00 0.00 0.00 75 1012.1
20260505140404 60 220 9.0 10.0 0.00 0.00 0.00 80 1012.3